createdAt,value
2023-05-02T00:00:08.790Z,998.87
2023-05-02T00:01:07.955Z,998.93
2023-05-02T00:02:08.012Z,998.85
2023-05-02T00:03:08.008Z,998.81
2023-05-02T00:04:08.020Z,998.86
2023-05-02T00:05:07.917Z,998.92
2023-05-02T00:06:07.978Z,998.96
2023-05-02T00:07:07.963Z,998.93
2023-05-02T00:08:07.929Z,998.91
2023-05-02T00:09:08.008Z,998.85
2023-05-02T00:10:07.911Z,998.91
2023-05-02T00:11:07.902Z,998.92
2023-05-02T00:12:07.893Z,998.93
2023-05-02T00:13:07.997Z,998.95
2023-05-02T00:14:07.872Z,998.90
2023-05-02T00:15:07.873Z,998.95
2023-05-02T00:16:07.864Z,998.91
2023-05-02T00:17:07.949Z,998.93
2023-05-02T00:18:07.922Z,998.88
2023-05-02T00:19:07.933Z,998.95
2023-05-02T00:20:07.836Z,998.96
2023-05-02T00:21:07.817Z,998.97
2023-05-02T00:22:07.809Z,998.91
2023-05-02T00:23:07.890Z,998.91
2023-05-02T00:24:07.827Z,998.93
2023-05-02T00:25:07.804Z,998.89
2023-05-02T00:26:07.830Z,998.89
2023-05-02T00:27:07.792Z,998.94
2023-05-02T00:28:07.819Z,998.92
2023-05-02T00:29:07.830Z,998.92
2023-05-02T00:30:07.814Z,998.90
2023-05-02T00:31:08.795Z,998.95
2023-05-02T00:32:07.799Z,998.88
2023-05-02T00:33:07.815Z,998.86
2023-05-02T00:34:07.815Z,998.87
2023-05-02T00:35:07.732Z,998.87
2023-05-02T00:36:07.713Z,998.93
2023-05-02T00:37:07.729Z,998.91
2023-05-02T00:38:07.834Z,998.94
2023-05-02T00:39:07.733Z,998.93
2023-05-02T00:40:07.720Z,998.99
2023-05-02T00:41:07.698Z,998.93
2023-05-02T00:42:07.695Z,999.00
2023-05-02T00:43:07.744Z,998.97
2023-05-02T00:44:07.697Z,998.96
2023-05-02T00:45:07.675Z,999.03
2023-05-02T00:46:07.739Z,998.98
2023-05-02T00:47:07.704Z,999.02
2023-05-02T00:48:07.717Z,998.96
2023-05-02T00:49:07.673Z,999.03
2023-05-02T00:50:07.663Z,999.01
2023-05-02T00:51:07.626Z,999.01
2023-05-02T00:52:07.617Z,999.02
2023-05-02T00:53:07.653Z,999.02
2023-05-02T00:54:07.613Z,999.01
2023-05-02T00:55:07.733Z,998.95
2023-05-02T00:56:07.646Z,999.00
2023-05-02T00:57:07.653Z,998.98
2023-05-02T00:58:07.629Z,998.98
2023-05-02T00:59:07.652Z,998.98
2023-05-02T01:00:07.600Z,998.97
2023-05-02T01:01:07.630Z,999.03
2023-05-02T01:02:07.682Z,999.03
2023-05-02T01:03:07.776Z,999.02
2023-05-02T01:04:07.774Z,999.08
2023-05-02T01:05:07.584Z,999.10
2023-05-02T01:06:07.577Z,999.09
2023-05-02T01:07:07.517Z,999.08
2023-05-02T01:08:08.495Z,999.14
2023-05-02T01:09:07.533Z,999.13
2023-05-02T01:10:07.520Z,999.17
2023-05-02T01:11:07.482Z,999.20
2023-05-02T01:12:07.474Z,999.23
2023-05-02T01:13:07.529Z,999.18
2023-05-02T01:14:07.502Z,999.18
2023-05-02T01:15:07.475Z,999.13
2023-05-02T01:16:07.536Z,999.18
2023-05-02T01:17:07.533Z,999.20
2023-05-02T01:18:07.504Z,999.16
2023-05-02T01:19:07.467Z,999.21
2023-05-02T01:20:07.424Z,999.18
2023-05-02T01:21:07.434Z,999.31
2023-05-02T01:22:07.423Z,999.22
2023-05-02T01:23:07.425Z,999.19
2023-05-02T01:24:07.416Z,999.26
2023-05-02T01:25:08.282Z,999.24
2023-05-02T01:26:07.435Z,999.27
2023-05-02T01:27:07.418Z,999.27
2023-05-02T01:28:07.388Z,999.23
2023-05-02T01:29:07.385Z,999.28
2023-05-02T01:30:07.374Z,999.36
2023-05-02T01:31:07.389Z,999.31
2023-05-02T01:32:07.599Z,999.27
2023-05-02T01:33:07.397Z,999.36
2023-05-02T01:34:07.360Z,999.39
2023-05-02T01:35:07.386Z,999.35
2023-05-02T01:36:07.328Z,999.30
2023-05-02T01:37:07.326Z,999.30
2023-05-02T01:38:07.301Z,999.35
2023-05-02T01:39:07.334Z,999.37
2023-05-02T01:40:07.300Z,999.33
2023-05-02T01:41:07.337Z,999.29
2023-05-02T01:42:07.305Z,999.28
2023-05-02T01:43:07.329Z,999.30
2023-05-02T01:44:07.302Z,999.34
2023-05-02T01:45:07.268Z,999.37
2023-05-02T01:46:07.299Z,999.33
2023-05-02T01:47:07.517Z,999.31
2023-05-02T01:48:07.327Z,999.39
2023-05-02T01:49:07.259Z,999.40
2023-05-02T01:50:07.217Z,999.39
2023-05-02T01:51:07.273Z,999.40
2023-05-02T01:52:07.274Z,999.40
2023-05-02T01:53:07.214Z,999.40
2023-05-02T01:54:07.733Z,999.43
2023-05-02T01:55:07.241Z,999.39
2023-05-02T01:56:07.206Z,999.43
2023-05-02T01:57:07.197Z,999.44
2023-05-02T01:58:07.210Z,999.42
2023-05-02T01:59:07.168Z,999.39
2023-05-02T02:00:07.201Z,999.40
2023-05-02T02:01:07.209Z,999.48
2023-05-02T02:02:07.297Z,999.40
2023-05-02T02:03:07.219Z,999.45
2023-05-02T02:04:07.194Z,999.47
2023-05-02T02:05:07.154Z,999.48
2023-05-02T02:06:07.748Z,999.45
2023-05-02T02:07:07.142Z,999.52
2023-05-02T02:08:07.134Z,999.57
2023-05-02T02:09:07.091Z,999.47
2023-05-02T02:10:07.118Z,999.50
2023-05-02T02:11:07.092Z,999.51
2023-05-02T02:12:07.136Z,999.52
2023-05-02T02:13:07.130Z,999.53
2023-05-02T02:14:07.080Z,999.48
2023-05-02T02:15:07.132Z,999.51
2023-05-02T02:16:07.080Z,999.52
2023-05-02T02:17:07.179Z,999.49
2023-05-02T02:18:07.825Z,999.41
2023-05-02T02:19:07.048Z,999.47
2023-05-02T02:20:07.052Z,999.54
2023-05-02T02:21:07.072Z,999.43
2023-05-02T02:22:07.026Z,999.57
2023-05-02T02:23:07.002Z,999.59
2023-05-02T02:24:07.007Z,999.57
2023-05-02T02:25:06.995Z,999.65
2023-05-02T02:26:39.522Z,999.62
2023-05-02T02:27:39.405Z,999.63
2023-05-02T02:28:39.407Z,999.62
2023-05-02T02:29:06.979Z,999.67
2023-05-02T02:30:40.430Z,999.62
2023-05-02T02:31:39.455Z,999.63
2023-05-02T02:32:40.566Z,999.65
2023-05-02T02:33:40.422Z,999.63
2023-05-02T02:34:07.201Z,999.68
2023-05-02T02:35:54.801Z,999.70
2023-05-02T02:36:55.935Z,999.75
2023-05-02T02:37:55.921Z,999.74
2023-05-02T02:38:55.938Z,999.73
2023-05-02T02:39:55.915Z,999.73
2023-05-02T02:40:56.018Z,999.72
2023-05-02T02:41:55.887Z,999.72
2023-05-02T02:42:55.895Z,999.77
2023-05-02T02:43:55.877Z,999.80
2023-05-02T02:44:55.861Z,999.81
2023-05-02T02:45:55.980Z,999.82
2023-05-02T02:46:55.909Z,999.82
2023-05-02T02:47:55.926Z,999.77
2023-05-02T02:48:55.824Z,999.77
2023-05-02T02:49:55.836Z,999.79
2023-05-02T02:50:55.898Z,999.84
2023-05-02T02:51:55.801Z,999.84
2023-05-02T02:52:55.825Z,999.85
2023-05-02T02:53:55.825Z,999.87
2023-05-02T02:54:55.799Z,999.92
2023-05-02T02:55:55.814Z,999.90
2023-05-02T02:56:55.787Z,999.93
2023-05-02T02:57:55.773Z,999.91
2023-05-02T02:58:55.777Z,999.94
2023-05-02T02:59:55.801Z,999.95
2023-05-02T03:00:55.737Z,999.98
2023-05-02T03:01:55.795Z,1000.09
2023-05-02T03:02:55.819Z,1000.00
2023-05-02T03:03:55.797Z,1000.13
2023-05-02T03:04:55.734Z,1000.10
2023-05-02T03:05:55.716Z,1000.05
2023-05-02T03:06:55.844Z,1000.08
2023-05-02T03:07:55.696Z,1000.09
2023-05-02T03:08:55.709Z,1000.12
2023-05-02T03:09:55.697Z,1000.12
2023-05-02T03:10:55.759Z,1000.14
2023-05-02T03:11:55.688Z,1000.10
2023-05-02T03:12:55.992Z,1000.13
2023-05-02T03:13:55.693Z,1000.12
2023-05-02T03:14:55.702Z,1000.19
2023-05-02T03:15:55.797Z,1000.16
2023-05-02T03:16:55.649Z,1000.16
2023-05-02T03:17:55.695Z,1000.18
2023-05-02T03:18:55.696Z,1000.17
2023-05-02T03:19:55.650Z,1000.20
2023-05-02T03:20:55.629Z,1000.25
2023-05-02T03:21:55.618Z,1000.25
2023-05-02T03:22:55.647Z,1000.24
2023-05-02T03:23:55.604Z,1000.25
2023-05-02T03:24:55.600Z,1000.29
2023-05-02T03:25:55.619Z,1000.29
2023-05-02T03:26:55.589Z,1000.28
2023-05-02T03:27:55.602Z,1000.28
2023-05-02T03:28:55.590Z,1000.30
2023-05-02T03:29:55.611Z,1000.26
2023-05-02T03:30:55.575Z,1000.26
2023-05-02T03:31:55.624Z,1000.28
2023-05-02T03:32:55.644Z,1000.30
2023-05-02T03:33:55.508Z,1000.20
2023-05-02T03:34:55.517Z,1000.29
2023-05-02T03:35:55.525Z,1000.23
2023-05-02T03:36:55.673Z,1000.25
2023-05-02T03:37:55.526Z,1000.30
2023-05-02T03:38:55.493Z,1000.35
2023-05-02T03:39:55.479Z,1000.23
2023-05-02T03:40:55.535Z,1000.25
2023-05-02T03:41:55.518Z,1000.27
2023-05-02T03:42:55.476Z,1000.31
2023-05-02T03:43:55.531Z,1000.35
2023-05-02T03:44:55.512Z,1000.29
2023-05-02T03:45:55.489Z,1000.34
2023-05-02T03:46:55.502Z,1000.37
2023-05-02T03:47:55.536Z,1000.40
2023-05-02T03:48:55.462Z,1000.38
2023-05-02T03:49:55.475Z,1000.39
2023-05-02T03:50:55.453Z,1000.45
2023-05-02T03:51:55.423Z,1000.40
2023-05-02T03:52:55.434Z,1000.46
2023-05-02T03:53:55.444Z,1000.41
2023-05-02T03:54:55.397Z,1000.43
2023-05-02T03:55:55.435Z,1000.47
2023-05-02T03:56:55.394Z,1000.43
2023-05-02T03:57:55.384Z,1000.43
2023-05-02T03:58:55.466Z,1000.52
2023-05-02T03:59:55.383Z,1000.49
2023-05-02T04:00:55.381Z,1000.50
2023-05-02T04:01:55.441Z,1000.53
2023-05-02T04:02:55.468Z,1000.56
2023-05-02T04:03:55.380Z,1000.59
2023-05-02T04:04:55.392Z,1000.59
2023-05-02T04:05:55.371Z,1000.56
2023-05-02T04:06:55.402Z,1000.54
2023-05-02T04:07:55.311Z,1000.58
2023-05-02T04:08:55.284Z,1000.60
2023-05-02T04:09:55.279Z,1000.62
2023-05-02T04:10:55.328Z,1000.61
2023-05-02T04:11:55.342Z,1000.66
2023-05-02T04:12:55.271Z,1000.66
2023-05-02T04:13:55.249Z,1000.70
2023-05-02T04:14:55.268Z,1000.66
2023-05-02T04:15:55.272Z,1000.62
2023-05-02T04:16:55.344Z,1000.65
2023-05-02T04:17:55.306Z,1000.72
2023-05-02T04:18:55.243Z,1000.67
2023-05-02T04:19:55.213Z,1000.77
2023-05-02T04:20:55.272Z,1000.69
2023-05-02T04:21:55.201Z,1000.67
2023-05-02T04:22:55.245Z,1000.76
2023-05-02T04:23:55.188Z,1000.79
2023-05-02T04:24:55.212Z,1000.80
2023-05-02T04:25:55.208Z,1000.83
2023-05-02T04:26:55.221Z,1000.86
2023-05-02T04:27:55.238Z,1000.92
2023-05-02T04:28:55.186Z,1000.77
2023-05-02T04:29:55.188Z,1000.86
2023-05-02T04:30:55.227Z,1000.82
2023-05-02T04:31:55.141Z,1000.90
2023-05-02T04:32:55.250Z,1000.91
2023-05-02T04:33:55.136Z,1000.93
2023-05-02T04:34:56.254Z,1000.97
2023-05-02T04:35:55.158Z,1000.98
2023-05-02T04:36:55.095Z,1001.02
2023-05-02T04:37:55.100Z,1001.04
2023-05-02T04:38:55.124Z,1001.02
2023-05-02T04:39:55.086Z,1001.06
2023-05-02T04:40:55.100Z,1001.07
2023-05-02T04:41:55.082Z,1001.07
2023-05-02T04:42:55.059Z,1001.07
2023-05-02T04:43:55.079Z,1001.09
2023-05-02T04:44:55.065Z,1001.14
2023-05-02T04:45:55.106Z,1001.17
2023-05-02T04:46:55.120Z,1001.20
2023-05-02T04:47:55.122Z,1001.22
2023-05-02T04:48:55.026Z,1001.19
2023-05-02T04:49:55.071Z,1001.21
2023-05-02T04:50:55.054Z,1001.23
2023-05-02T04:51:55.048Z,1001.18
2023-05-02T04:52:55.001Z,1001.23
2023-05-02T04:53:55.011Z,1001.28
2023-05-02T04:54:54.994Z,1001.27
2023-05-02T04:55:55.002Z,1001.32
2023-05-02T04:56:55.034Z,1001.32
2023-05-02T04:57:54.966Z,1001.34
2023-05-02T04:58:54.995Z,1001.34
2023-05-02T04:59:55.017Z,1001.41
2023-05-02T05:00:55.149Z,1001.39
2023-05-02T05:01:55.011Z,1001.35
2023-05-02T05:02:55.721Z,1001.43
2023-05-02T05:03:55.016Z,1001.46
2023-05-02T05:04:54.957Z,1001.46
2023-05-02T05:05:54.958Z,1001.47
2023-05-02T05:06:55.042Z,1001.52
2023-05-02T05:07:54.893Z,1001.51
2023-05-02T05:08:54.899Z,1001.55
2023-05-02T05:09:54.905Z,1001.56
2023-05-02T05:10:54.878Z,1001.53
2023-05-02T05:11:54.857Z,1001.63
2023-05-02T05:12:54.883Z,1001.54
2023-05-02T05:13:54.861Z,1001.56
2023-05-02T05:14:54.878Z,1001.57
2023-05-02T05:15:54.893Z,1001.59
2023-05-02T05:16:54.838Z,1001.57
2023-05-02T05:17:54.837Z,1001.61
2023-05-02T05:18:54.831Z,1001.58
2023-05-02T05:19:55.857Z,1001.63
2023-05-02T05:20:54.811Z,1001.65
2023-05-02T05:21:54.824Z,1001.59
2023-05-02T05:22:54.825Z,1001.64
2023-05-02T05:23:54.798Z,1001.70
2023-05-02T05:24:54.810Z,1001.66
2023-05-02T05:25:54.781Z,1001.68
2023-05-02T05:26:55.770Z,1001.71
2023-05-02T05:27:54.769Z,1001.72
2023-05-02T05:28:54.777Z,1001.69
2023-05-02T05:29:54.747Z,1001.70
2023-05-02T05:30:54.734Z,1001.75
2023-05-02T05:31:54.817Z,1001.81
2023-05-02T05:32:54.806Z,1001.80
2023-05-02T05:33:54.769Z,1001.81
2023-05-02T05:34:54.721Z,1001.87
2023-05-02T05:35:54.733Z,1001.83
2023-05-02T05:36:54.711Z,1001.87
2023-05-02T05:37:54.728Z,1001.82
2023-05-02T05:38:54.689Z,1001.85
2023-05-02T05:39:54.716Z,1001.93
2023-05-02T05:40:54.737Z,1001.93
2023-05-02T05:41:54.675Z,1001.93
2023-05-02T05:42:54.683Z,1001.94
2023-05-02T05:43:54.685Z,1001.97
2023-05-02T05:44:54.641Z,1001.91
2023-05-02T05:45:54.818Z,1001.95
2023-05-02T05:46:54.733Z,1001.99
2023-05-02T05:47:54.690Z,1001.99
2023-05-02T05:48:54.626Z,1002.02
2023-05-02T05:49:54.643Z,1002.00
2023-05-02T05:50:54.660Z,1002.02
2023-05-02T05:51:54.615Z,1002.07
2023-05-02T05:52:54.623Z,1002.07
2023-05-02T05:53:54.609Z,1002.05
2023-05-02T05:54:54.597Z,1002.08
2023-05-02T05:55:54.609Z,1002.10
2023-05-02T05:56:54.580Z,1002.10
2023-05-02T05:57:54.592Z,1002.15
2023-05-02T05:58:54.586Z,1002.10
2023-05-02T05:59:54.576Z,1002.07
2023-05-02T06:00:54.576Z,1002.10
2023-05-02T06:01:54.572Z,1002.11
2023-05-02T06:02:54.582Z,1002.20
2023-05-02T06:03:54.571Z,1002.16
2023-05-02T06:04:54.569Z,1002.21
2023-05-02T06:05:54.543Z,1002.19
2023-05-02T06:06:54.560Z,1002.14
2023-05-02T06:07:54.484Z,1002.11
2023-05-02T06:08:54.515Z,1002.15
2023-05-02T06:09:54.505Z,1002.16
2023-05-02T06:10:54.491Z,1002.19
2023-05-02T06:11:54.479Z,1002.21
2023-05-02T06:12:54.486Z,1002.23
2023-05-02T06:13:54.474Z,1002.23
2023-05-02T06:14:54.451Z,1002.26
2023-05-02T06:15:54.485Z,1002.23
2023-05-02T06:16:54.752Z,1002.27
2023-05-02T06:17:54.465Z,1002.35
2023-05-02T06:18:54.417Z,1002.34
2023-05-02T06:19:54.420Z,1002.36
2023-05-02T06:20:54.698Z,1002.36
2023-05-02T06:21:54.415Z,1002.40
2023-05-02T06:22:54.397Z,1002.36
2023-05-02T06:23:54.438Z,1002.32
2023-05-02T06:24:54.374Z,1002.36
2023-05-02T06:25:54.399Z,1002.39
2023-05-02T06:26:54.384Z,1002.46
2023-05-02T06:27:54.371Z,1002.45
2023-05-02T06:28:54.362Z,1002.43
2023-05-02T06:29:54.342Z,1002.40
2023-05-02T06:30:54.329Z,1002.53
2023-05-02T06:31:54.376Z,1002.51
2023-05-02T06:32:54.423Z,1002.48
2023-05-02T06:33:54.311Z,1002.54
2023-05-02T06:34:54.324Z,1002.52
2023-05-02T06:35:54.330Z,1002.56
2023-05-02T06:36:54.297Z,1002.59
2023-05-02T06:37:54.288Z,1002.62
2023-05-02T06:38:54.291Z,1002.65
2023-05-02T06:39:54.291Z,1002.70
2023-05-02T06:40:54.267Z,1002.71
2023-05-02T06:41:54.261Z,1002.70
2023-05-02T06:42:54.279Z,1002.75
2023-05-02T06:43:54.221Z,1002.76
2023-05-02T06:44:54.236Z,1002.70
2023-05-02T06:45:54.223Z,1002.69
2023-05-02T06:46:54.295Z,1002.73
2023-05-02T06:47:54.331Z,1002.75
2023-05-02T06:48:54.246Z,1002.75
2023-05-02T06:49:54.239Z,1002.79
2023-05-02T06:50:54.218Z,1002.77
2023-05-02T06:51:54.179Z,1002.78
2023-05-02T06:52:54.225Z,1002.78
2023-05-02T06:53:54.242Z,1002.87
2023-05-02T06:54:54.158Z,1002.81
2023-05-02T06:55:54.165Z,1002.84
2023-05-02T06:56:54.210Z,1002.84
2023-05-02T06:57:54.134Z,1002.88
2023-05-02T06:58:54.151Z,1002.86
2023-05-02T06:59:54.159Z,1002.89
2023-05-02T07:00:54.170Z,1002.87
2023-05-02T07:01:54.213Z,1002.97
2023-05-02T07:02:54.154Z,1002.87
2023-05-02T07:03:54.152Z,1002.94
2023-05-02T07:04:54.107Z,1002.93
2023-05-02T07:05:55.116Z,1002.91
2023-05-02T07:06:54.169Z,1002.95
2023-05-02T07:07:54.100Z,1002.90
2023-05-02T07:08:54.081Z,1002.91
2023-05-02T07:09:54.076Z,1002.96
2023-05-02T07:10:54.066Z,1002.91
2023-05-02T07:11:54.088Z,1002.90
2023-05-02T07:12:54.064Z,1002.98
2023-05-02T07:13:54.033Z,1003.05
2023-05-02T07:14:54.140Z,1003.03
2023-05-02T07:15:54.040Z,1002.98
2023-05-02T07:16:54.128Z,1003.00
2023-05-02T07:17:54.030Z,1003.04
2023-05-02T07:18:54.029Z,1003.05
2023-05-02T07:19:54.017Z,1003.06
2023-05-02T07:20:54.004Z,1003.02
2023-05-02T07:21:54.017Z,1003.12
2023-05-02T07:22:54.002Z,1003.10
2023-05-02T07:23:54.006Z,1003.02
2023-05-02T07:24:54.077Z,1003.16
2023-05-02T07:25:53.969Z,1003.07
2023-05-02T07:26:53.983Z,1003.16
2023-05-02T07:27:53.967Z,1003.16
2023-05-02T07:28:54.003Z,1003.19
2023-05-02T07:29:53.930Z,1003.19
2023-05-02T07:30:53.955Z,1003.19
2023-05-02T07:31:53.984Z,1003.25
2023-05-02T07:32:53.969Z,1003.18
2023-05-02T07:33:53.954Z,1003.18
2023-05-02T07:34:54.703Z,1003.29
2023-05-02T07:35:53.912Z,1003.24
2023-05-02T07:36:53.908Z,1003.28
2023-05-02T07:37:53.903Z,1003.31
2023-05-02T07:38:53.998Z,1003.32
2023-05-02T07:39:53.905Z,1003.26
2023-05-02T07:40:53.869Z,1003.30
2023-05-02T07:41:53.864Z,1003.29
2023-05-02T07:42:53.862Z,1003.32
2023-05-02T07:43:53.923Z,1003.33
2023-05-02T07:44:53.879Z,1003.38
2023-05-02T07:45:53.864Z,1003.28
2023-05-02T07:46:53.824Z,1003.27
2023-05-02T07:47:53.906Z,1003.31
2023-05-02T07:48:53.855Z,1003.33
2023-05-02T07:49:53.824Z,1003.22
2023-05-02T07:50:53.798Z,1003.29
2023-05-02T07:51:53.804Z,1003.29
2023-05-02T07:52:53.798Z,1003.36
2023-05-02T07:53:53.806Z,1003.31
2023-05-02T07:54:53.820Z,1003.34
2023-05-02T07:55:53.785Z,1003.36
2023-05-02T07:56:53.780Z,1003.35
2023-05-02T07:57:53.778Z,1003.33
2023-05-02T07:58:53.775Z,1003.40
2023-05-02T07:59:53.753Z,1003.40
2023-05-02T08:00:53.798Z,1003.42
2023-05-02T08:01:53.749Z,1003.42
2023-05-02T08:02:53.808Z,1003.46
2023-05-02T08:03:53.822Z,1003.45
2023-05-02T08:04:53.817Z,1003.44
2023-05-02T08:05:53.743Z,1003.57
2023-05-02T08:06:53.828Z,1003.50
2023-05-02T08:07:53.731Z,1003.59
2023-05-02T08:08:53.736Z,1003.47
2023-05-02T08:09:53.704Z,1003.45
2023-05-02T08:10:53.686Z,1003.45
2023-05-02T08:11:54.670Z,1003.51
2023-05-02T08:12:53.681Z,1003.51
2023-05-02T08:13:53.654Z,1003.48
2023-05-02T08:14:53.666Z,1003.54
2023-05-02T08:15:54.717Z,1003.50
2023-05-02T08:16:53.650Z,1003.55
2023-05-02T08:17:53.654Z,1003.57
2023-05-02T08:18:53.682Z,1003.58
2023-05-02T08:19:53.608Z,1003.59
2023-05-02T08:20:53.670Z,1003.63
2023-05-02T08:21:53.615Z,1003.61
2023-05-02T08:22:53.642Z,1003.59
2023-05-02T08:23:53.620Z,1003.71
2023-05-02T08:24:53.596Z,1003.71
2023-05-02T08:25:53.616Z,1003.65
2023-05-02T08:26:53.576Z,1003.63
2023-05-02T08:27:53.591Z,1003.72
2023-05-02T08:28:53.588Z,1003.66
2023-05-02T08:29:53.557Z,1003.70
2023-05-02T08:30:53.566Z,1003.66
2023-05-02T08:31:53.651Z,1003.68
2023-05-02T08:32:53.621Z,1003.64
2023-05-02T08:33:53.549Z,1003.74
2023-05-02T08:34:53.518Z,1003.75
2023-05-02T08:35:53.537Z,1003.82
2023-05-02T08:36:53.963Z,1003.77
2023-05-02T08:37:53.499Z,1003.78
2023-05-02T08:38:53.500Z,1003.76
2023-05-02T08:39:53.524Z,1003.82
2023-05-02T08:40:53.467Z,1003.87
2023-05-02T08:41:53.490Z,1003.85
2023-05-02T08:42:53.454Z,1003.80
2023-05-02T08:43:53.460Z,1003.82
2023-05-02T08:44:53.466Z,1003.83
2023-05-02T08:45:53.449Z,1003.89
2023-05-02T08:46:53.488Z,1003.91
2023-05-02T08:47:53.439Z,1003.86
2023-05-02T08:48:53.427Z,1003.89
2023-05-02T08:49:53.448Z,1003.82
2023-05-02T08:50:53.402Z,1003.86
2023-05-02T08:51:53.422Z,1003.92
2023-05-02T08:52:53.392Z,1003.87
2023-05-02T08:53:53.431Z,1003.89
2023-05-02T08:54:53.373Z,1003.95
2023-05-02T08:55:53.379Z,1004.02
2023-05-02T08:56:53.363Z,1003.95
2023-05-02T08:57:53.379Z,1003.96
2023-05-02T08:58:53.356Z,1004.00
2023-05-02T08:59:53.340Z,1004.04
2023-05-02T09:00:53.560Z,1004.13
2023-05-02T09:01:53.378Z,1004.06
2023-05-02T09:02:53.331Z,1004.13
2023-05-02T09:03:53.348Z,1004.09
2023-05-02T09:04:53.328Z,1004.12
2023-05-02T09:05:53.390Z,1004.09
2023-05-02T09:06:53.377Z,1004.11
2023-05-02T09:07:53.305Z,1004.05
2023-05-02T09:08:53.335Z,1004.12
2023-05-02T09:09:53.399Z,1004.14
2023-05-02T09:10:53.309Z,1004.14
2023-05-02T09:11:53.287Z,1004.18
2023-05-02T09:12:53.287Z,1004.13
2023-05-02T09:13:53.278Z,1004.14
2023-05-02T09:14:53.267Z,1004.14
2023-05-02T09:15:53.249Z,1004.16
2023-05-02T09:16:53.596Z,1004.22
2023-05-02T09:17:53.242Z,1004.25
2023-05-02T09:18:53.227Z,1004.20
2023-05-02T09:19:53.219Z,1004.23
2023-05-02T09:20:53.222Z,1004.25
2023-05-02T09:21:53.231Z,1004.26
2023-05-02T09:22:53.236Z,1004.31
2023-05-02T09:23:53.200Z,1004.28
2023-05-02T09:24:53.196Z,1004.28
2023-05-02T09:25:53.181Z,1004.34
2023-05-02T09:26:53.214Z,1004.38
2023-05-02T09:27:53.196Z,1004.40
2023-05-02T09:28:53.160Z,1004.42
2023-05-02T09:29:53.172Z,1004.40
2023-05-02T09:30:53.174Z,1004.34
2023-05-02T09:31:56.092Z,1004.42
2023-05-02T09:32:54.175Z,1004.42
2023-05-02T09:33:53.140Z,1004.43
2023-05-02T09:34:53.137Z,1004.44
2023-05-02T09:35:53.124Z,1004.46
2023-05-02T09:36:53.150Z,1004.44
2023-05-02T09:37:53.130Z,1004.45
2023-05-02T09:38:53.098Z,1004.48
2023-05-02T09:39:53.407Z,1004.52
2023-05-02T09:40:53.269Z,1004.43
2023-05-02T09:41:53.071Z,1004.52
2023-05-02T09:42:53.122Z,1004.44
2023-05-02T09:43:54.071Z,1004.53
2023-05-02T09:44:53.073Z,1004.54
2023-05-02T09:45:53.091Z,1004.51
2023-05-02T09:46:53.117Z,1004.57
2023-05-02T09:47:53.140Z,1004.59
2023-05-02T09:48:53.091Z,1004.59
2023-05-02T09:49:53.065Z,1004.59
2023-05-02T09:50:53.045Z,1004.60
2023-05-02T09:51:53.027Z,1004.65
2023-05-02T09:52:53.015Z,1004.72
2023-05-02T09:53:53.008Z,1004.85
2023-05-02T09:54:53.056Z,1004.76
2023-05-02T09:55:52.994Z,1004.76
2023-05-02T09:56:53.061Z,1004.74
2023-05-02T09:57:52.958Z,1004.74
2023-05-02T09:58:53.006Z,1004.74
2023-05-02T09:59:53.023Z,1004.72
2023-05-02T10:00:52.948Z,1004.77
2023-05-02T10:01:53.050Z,1004.80
2023-05-02T10:02:53.150Z,1004.70
2023-05-02T10:03:53.012Z,1004.77
2023-05-02T10:04:52.947Z,1004.77
2023-05-02T10:05:52.962Z,1004.88
2023-05-02T10:06:52.995Z,1004.88
2023-05-02T10:07:52.910Z,1004.89
2023-05-02T10:08:52.906Z,1004.84
2023-05-02T10:09:52.905Z,1004.84
2023-05-02T10:10:52.882Z,1004.85
2023-05-02T10:11:52.970Z,1004.88
2023-05-02T10:12:52.892Z,1004.93
2023-05-02T10:13:52.885Z,1004.93
2023-05-02T10:14:52.870Z,1004.87
2023-05-02T10:15:52.956Z,1004.88
2023-05-02T10:16:52.870Z,1004.95
2023-05-02T10:17:52.953Z,1004.90
2023-05-02T10:18:52.842Z,1004.95
2023-05-02T10:19:52.860Z,1004.95
2023-05-02T10:20:52.823Z,1004.98
2023-05-02T10:21:52.867Z,1004.95
2023-05-02T10:22:52.843Z,1005.16
2023-05-02T10:23:52.818Z,1005.22
2023-05-02T10:24:52.796Z,1004.97
2023-05-02T10:25:52.793Z,1005.03
2023-05-02T10:26:52.790Z,1005.19
2023-05-02T10:27:52.812Z,1004.96
2023-05-02T10:28:52.796Z,1004.85
2023-05-02T10:29:52.771Z,1004.89
2023-05-02T10:30:52.758Z,1004.94
2023-05-02T10:31:52.822Z,1004.85
2023-05-02T10:32:52.792Z,1004.90
2023-05-02T10:33:52.730Z,1004.90
2023-05-02T10:34:52.746Z,1004.86
2023-05-02T10:35:52.724Z,1004.79
2023-05-02T10:36:52.723Z,1004.83
2023-05-02T10:37:52.740Z,1004.90
2023-05-02T10:38:52.706Z,1004.85
2023-05-02T10:39:52.712Z,1004.89
2023-05-02T10:40:52.716Z,1004.88
2023-05-02T10:41:52.731Z,1004.83
2023-05-02T10:42:52.770Z,1004.78
2023-05-02T10:43:52.681Z,1004.86
2023-05-02T10:44:52.655Z,1004.91
2023-05-02T10:45:52.656Z,1004.87
2023-05-02T10:46:52.734Z,1005.00
2023-05-02T10:47:52.727Z,1004.94
2023-05-02T10:48:52.672Z,1005.14
2023-05-02T10:49:53.768Z,1005.00
2023-05-02T10:50:52.650Z,1004.96
2023-05-02T10:51:52.637Z,1004.98
2023-05-02T10:52:52.618Z,1005.00
2023-05-02T10:53:52.624Z,1004.98
2023-05-02T10:54:52.613Z,1004.99
2023-05-02T10:55:52.648Z,1004.95
2023-05-02T10:56:52.640Z,1004.99
2023-05-02T10:57:52.584Z,1005.00
2023-05-02T10:58:52.581Z,1004.91
2023-05-02T10:59:52.636Z,1004.94
2023-05-02T11:00:52.725Z,1004.94
2023-05-02T11:01:52.634Z,1004.93
2023-05-02T11:02:52.753Z,1005.05
2023-05-02T11:03:52.561Z,1004.99
2023-05-02T11:04:52.540Z,1004.94
2023-05-02T11:05:52.557Z,1005.02
2023-05-02T11:06:52.525Z,1005.04
2023-05-02T11:07:52.539Z,1005.05
2023-05-02T11:08:52.560Z,1005.12
2023-05-02T11:09:52.582Z,1005.04
2023-05-02T11:10:52.530Z,1005.08
2023-05-02T11:11:52.518Z,1005.09
2023-05-02T11:12:52.560Z,1005.07
2023-05-02T11:13:52.512Z,1005.17
2023-05-02T11:14:52.502Z,1005.11
2023-05-02T11:15:52.489Z,1005.12
2023-05-02T11:16:52.554Z,1005.08
2023-05-02T11:17:52.510Z,1005.07
2023-05-02T11:18:52.497Z,1005.18
2023-05-02T11:19:52.444Z,1005.16
2023-05-02T11:20:52.448Z,1005.11
2023-05-02T11:21:52.488Z,1005.24
2023-05-02T11:22:52.457Z,1005.12
2023-05-02T11:23:52.406Z,1005.13
2023-05-02T11:24:52.426Z,1005.22
2023-05-02T11:25:52.424Z,1005.15
2023-05-02T11:26:52.406Z,1005.15
2023-05-02T11:27:52.410Z,1005.18
2023-05-02T11:28:52.372Z,1005.17
2023-05-02T11:29:52.383Z,1005.33
2023-05-02T11:30:52.388Z,1005.29
2023-05-02T11:31:52.423Z,1005.22
2023-05-02T11:32:52.383Z,1005.35
2023-05-02T11:33:52.440Z,1005.40
2023-05-02T11:34:52.341Z,1005.33
2023-05-02T11:35:53.296Z,1005.38
2023-05-02T11:36:52.347Z,1005.49
2023-05-02T11:37:52.309Z,1005.48
2023-05-02T11:38:52.360Z,1005.51
2023-05-02T11:39:52.357Z,1005.51
2023-05-02T11:40:52.301Z,1005.49
2023-05-02T11:41:52.308Z,1005.46
2023-05-02T11:42:52.279Z,1005.46
2023-05-02T11:43:53.290Z,1005.52
2023-05-02T11:44:52.280Z,1005.49
2023-05-02T11:45:52.317Z,1005.55
2023-05-02T11:46:52.330Z,1005.66
2023-05-02T11:47:52.293Z,1005.71
2023-05-02T11:48:52.275Z,1005.70
2023-05-02T11:49:52.233Z,1005.69
2023-05-02T11:50:52.228Z,1005.61
2023-05-02T11:51:53.286Z,1005.66
2023-05-02T11:52:52.241Z,1005.66
2023-05-02T11:53:52.240Z,1005.68
2023-05-02T11:54:52.218Z,1005.69
2023-05-02T11:55:52.249Z,1005.69
2023-05-02T11:56:52.215Z,1005.73
2023-05-02T11:57:52.212Z,1005.74
2023-05-02T11:58:52.270Z,1005.79
2023-05-02T11:59:52.189Z,1005.84
2023-05-02T12:00:52.202Z,1005.85
2023-05-02T12:01:52.233Z,1005.84
2023-05-02T12:02:52.214Z,1005.85
2023-05-02T12:03:52.181Z,1005.90
2023-05-02T12:04:52.157Z,1005.90
2023-05-02T12:05:52.234Z,1005.93
2023-05-02T12:06:52.263Z,1005.96
2023-05-02T12:07:52.213Z,1006.02
2023-05-02T12:08:52.202Z,1006.01
2023-05-02T12:09:52.124Z,1005.98
2023-05-02T12:10:52.136Z,1006.02
2023-05-02T12:11:52.135Z,1006.03